sensor_id;sensor_type;location;lat;lon;timestamp;P1;durP1;ratioP1;P2;durP2;ratioP2
39032;SDS011;24794;51.982;5.878;2022-10-16T00:00:32;3.92;;;1.67;;
39032;SDS011;24794;51.982;5.878;2022-10-16T00:01:33;3.75;;;1.60;;
39032;SDS011;24794;51.982;5.878;2022-10-16T00:02:34;2.70;;;1.42;;
39032;SDS011;24794;51.982;5.878;2022-10-16T00:03:35;2.75;;;1.50;;
39032;SDS011;24794;51.982;5.878;2022-10-16T00:04:36;3.28;;;1.63;;
39032;SDS011;24794;51.982;5.878;2022-10-16T00:05:43;4.43;;;1.85;;
39032;SDS011;24794;51.982;5.878;2022-10-16T00:06:44;3.92;;;1.75;;
39032;SDS011;24794;51.982;5.878;2022-10-16T00:07:44;4.87;;;2.00;;
39032;SDS011;24794;51.982;5.878;2022-10-16T00:08:45;4.65;;;2.20;;
39032;SDS011;24794;51.982;5.878;2022-10-16T00:09:46;3.90;;;2.38;;
39032;SDS011;24794;51.982;5.878;2022-10-16T00:10:47;4.82;;;2.70;;
39032;SDS011;24794;51.982;5.878;2022-10-16T00:11:47;3.92;;;2.60;;
39032;SDS011;24794;51.982;5.878;2022-10-16T00:12:48;4.00;;;2.47;;
39032;SDS011;24794;51.982;5.878;2022-10-16T00:13:49;6.60;;;3.08;;
39032;SDS011;24794;51.982;5.878;2022-10-16T00:14:52;4.60;;;2.75;;
39032;SDS011;24794;51.982;5.878;2022-10-16T00:15:54;7.78;;;2.90;;
39032;SDS011;24794;51.982;5.878;2022-10-16T00:16:56;8.30;;;2.50;;
39032;SDS011;24794;51.982;5.878;2022-10-16T00:17:56;3.35;;;2.08;;
39032;SDS011;24794;51.982;5.878;2022-10-16T00:18:57;4.43;;;2.40;;
39032;SDS011;24794;51.982;5.878;2022-10-16T00:19:58;6.18;;;2.60;;
39032;SDS011;24794;51.982;5.878;2022-10-16T00:21:02;3.58;;;2.00;;
39032;SDS011;24794;51.982;5.878;2022-10-16T00:22:04;5.78;;;2.60;;
39032;SDS011;24794;51.982;5.878;2022-10-16T00:23:05;5.57;;;2.60;;
39032;SDS011;24794;51.982;5.878;2022-10-16T00:24:07;3.97;;;1.90;;
39032;SDS011;24794;51.982;5.878;2022-10-16T00:25:08;3.05;;;1.90;;
39032;SDS011;24794;51.982;5.878;2022-10-16T00:26:11;5.43;;;1.85;;
39032;SDS011;24794;51.982;5.878;2022-10-16T00:27:13;4.45;;;2.33;;
39032;SDS011;24794;51.982;5.878;2022-10-16T00:28:14;5.22;;;2.05;;
39032;SDS011;24794;51.982;5.878;2022-10-16T00:29:15;3.00;;;1.73;;
39032;SDS011;24794;51.982;5.878;2022-10-16T00:30:15;3.22;;;2.08;;
39032;SDS011;24794;51.982;5.878;2022-10-16T00:31:17;3.80;;;2.17;;
39032;SDS011;24794;51.982;5.878;2022-10-16T00:32:19;3.00;;;1.80;;
39032;SDS011;24794;51.982;5.878;2022-10-16T00:33:20;2.78;;;1.50;;
39032;SDS011;24794;51.982;5.878;2022-10-16T00:34:21;3.95;;;1.60;;
39032;SDS011;24794;51.982;5.878;2022-10-16T00:35:21;5.78;;;2.00;;
39032;SDS011;24794;51.982;5.878;2022-10-16T00:36:23;5.43;;;2.00;;
39032;SDS011;24794;51.982;5.878;2022-10-16T00:37:25;4.63;;;1.92;;
39032;SDS011;24794;51.982;5.878;2022-10-16T00:38:25;4.47;;;2.20;;
39032;SDS011;24794;51.982;5.878;2022-10-16T00:39:26;6.30;;;2.58;;
39032;SDS011;24794;51.982;5.878;2022-10-16T00:40:27;8.38;;;2.63;;
39032;SDS011;24794;51.982;5.878;2022-10-16T00:41:28;6.05;;;2.33;;
39032;SDS011;24794;51.982;5.878;2022-10-16T00:42:29;6.60;;;2.60;;
39032;SDS011;24794;51.982;5.878;2022-10-16T00:44:56;7.63;;;3.22;;
39032;SDS011;24794;51.982;5.878;2022-10-16T00:45:58;7.93;;;3.15;;
39032;SDS011;24794;51.982;5.878;2022-10-16T00:47:00;6.60;;;3.70;;
39032;SDS011;24794;51.982;5.878;2022-10-16T00:48:00;10.77;;;4.40;;
39032;SDS011;24794;51.982;5.878;2022-10-16T00:49:03;12.68;;;5.63;;
39032;SDS011;24794;51.982;5.878;2022-10-16T00:50:18;13.32;;;7.28;;
39032;SDS011;24794;51.982;5.878;2022-10-16T00:51:32;12.13;;;5.78;;
39032;SDS011;24794;51.982;5.878;2022-10-16T00:53:39;7.57;;;3.70;;
39032;SDS011;24794;51.982;5.878;2022-10-16T00:54:40;5.60;;;3.10;;
39032;SDS011;24794;51.982;5.878;2022-10-16T00:55:41;7.85;;;2.65;;
39032;SDS011;24794;51.982;5.878;2022-10-16T00:56:42;4.50;;;2.35;;
39032;SDS011;24794;51.982;5.878;2022-10-16T00:57:44;6.65;;;2.42;;
39032;SDS011;24794;51.982;5.878;2022-10-16T00:58:46;4.30;;;2.30;;
39032;SDS011;24794;51.982;5.878;2022-10-16T00:59:46;4.40;;;2.50;;
39032;SDS011;24794;51.982;5.878;2022-10-16T01:00:47;5.28;;;2.50;;
39032;SDS011;24794;51.982;5.878;2022-10-16T01:01:48;5.43;;;2.85;;
39032;SDS011;24794;51.982;5.878;2022-10-16T01:02:53;5.30;;;2.40;;
39032;SDS011;24794;51.982;5.878;2022-10-16T01:03:58;13.23;;;8.98;;
39032;SDS011;24794;51.982;5.878;2022-10-16T01:04:59;7.07;;;6.15;;
39032;SDS011;24794;51.982;5.878;2022-10-16T01:08:45;13.82;;;10.57;;
39032;SDS011;24794;51.982;5.878;2022-10-16T01:11:05;7.38;;;5.50;;
39032;SDS011;24794;51.982;5.878;2022-10-16T01:13:39;8.05;;;3.47;;
39032;SDS011;24794;51.982;5.878;2022-10-16T01:14:57;6.35;;;2.90;;
39032;SDS011;24794;51.982;5.878;2022-10-16T01:16:08;6.45;;;3.70;;
39032;SDS011;24794;51.982;5.878;2022-10-16T01:17:12;10.02;;;3.65;;
39032;SDS011;24794;51.982;5.878;2022-10-16T01:21:06;6.88;;;3.30;;
39032;SDS011;24794;51.982;5.878;2022-10-16T01:22:22;8.55;;;3.67;;
39032;SDS011;24794;51.982;5.878;2022-10-16T01:23:34;7.90;;;3.35;;
39032;SDS011;24794;51.982;5.878;2022-10-16T01:24:49;5.88;;;3.60;;
39032;SDS011;24794;51.982;5.878;2022-10-16T01:27:26;5.20;;;3.28;;
39032;SDS011;24794;51.982;5.878;2022-10-16T01:28:34;6.15;;;2.70;;
39032;SDS011;24794;51.982;5.878;2022-10-16T01:31:14;3.40;;;2.20;;
39032;SDS011;24794;51.982;5.878;2022-10-16T01:32:30;3.30;;;2.10;;
39032;SDS011;24794;51.982;5.878;2022-10-16T01:33:45;5.70;;;2.30;;
39032;SDS011;24794;51.982;5.878;2022-10-16T01:34:51;4.72;;;1.80;;
39032;SDS011;24794;51.982;5.878;2022-10-16T01:35:57;7.28;;;2.42;;
39032;SDS011;24794;51.982;5.878;2022-10-16T01:37:04;4.40;;;2.30;;
39032;SDS011;24794;51.982;5.878;2022-10-16T01:38:12;5.82;;;2.13;;
39032;SDS011;24794;51.982;5.878;2022-10-16T01:39:18;6.13;;;3.17;;
39032;SDS011;24794;51.982;5.878;2022-10-16T01:40:23;5.65;;;2.80;;
39032;SDS011;24794;51.982;5.878;2022-10-16T01:41:33;5.25;;;2.40;;
39032;SDS011;24794;51.982;5.878;2022-10-16T01:42:55;4.22;;;2.05;;
39032;SDS011;24794;51.982;5.878;2022-10-16T01:44:10;3.33;;;2.00;;
39032;SDS011;24794;51.982;5.878;2022-10-16T01:45:18;6.60;;;2.22;;
39032;SDS011;24794;51.982;5.878;2022-10-16T01:46:20;5.03;;;2.45;;
39032;SDS011;24794;51.982;5.878;2022-10-16T01:47:22;3.45;;;2.30;;
39032;SDS011;24794;51.982;5.878;2022-10-16T01:48:25;5.18;;;2.45;;
39032;SDS011;24794;51.982;5.878;2022-10-16T01:49:26;3.25;;;2.03;;
39032;SDS011;24794;51.982;5.878;2022-10-16T01:50:32;6.30;;;2.10;;
39032;SDS011;24794;51.982;5.878;2022-10-16T01:51:35;5.82;;;2.30;;
39032;SDS011;24794;51.982;5.878;2022-10-16T01:52:38;3.78;;;1.95;;
39032;SDS011;24794;51.982;5.878;2022-10-16T01:53:43;2.75;;;1.60;;
39032;SDS011;24794;51.982;5.878;2022-10-16T01:54:48;3.67;;;1.75;;
39032;SDS011;24794;51.982;5.878;2022-10-16T01:55:51;3.85;;;2.47;;
39032;SDS011;24794;51.982;5.878;2022-10-16T01:56:55;6.47;;;2.33;;
39032;SDS011;24794;51.982;5.878;2022-10-16T01:57:56;4.88;;;2.00;;
39032;SDS011;24794;51.982;5.878;2022-10-16T01:59:00;3.17;;;1.92;;
39032;SDS011;24794;51.982;5.878;2022-10-16T02:00:07;4.53;;;2.08;;
39032;SDS011;24794;51.982;5.878;2022-10-16T02:01:10;7.53;;;2.20;;
39032;SDS011;24794;51.982;5.878;2022-10-16T02:02:14;6.68;;;2.42;;
39032;SDS011;24794;51.982;5.878;2022-10-16T02:03:17;4.20;;;2.10;;
39032;SDS011;24794;51.982;5.878;2022-10-16T02:05:37;5.45;;;2.42;;
39032;SDS011;24794;51.982;5.878;2022-10-16T02:06:48;3.28;;;2.40;;
39032;SDS011;24794;51.982;5.878;2022-10-16T02:07:49;5.45;;;2.22;;
39032;SDS011;24794;51.982;5.878;2022-10-16T02:08:49;4.03;;;2.22;;
39032;SDS011;24794;51.982;5.878;2022-10-16T02:09:50;3.47;;;2.30;;
39032;SDS011;24794;51.982;5.878;2022-10-16T02:10:50;3.35;;;2.17;;
39032;SDS011;24794;51.982;5.878;2022-10-16T02:11:54;4.40;;;2.17;;
39032;SDS011;24794;51.982;5.878;2022-10-16T02:13:02;5.80;;;2.20;;
39032;SDS011;24794;51.982;5.878;2022-10-16T02:14:06;4.38;;;2.17;;
39032;SDS011;24794;51.982;5.878;2022-10-16T02:15:07;4.90;;;2.38;;
39032;SDS011;24794;51.982;5.878;2022-10-16T02:16:09;3.30;;;2.30;;
39032;SDS011;24794;51.982;5.878;2022-10-16T02:17:11;8.75;;;2.40;;
39032;SDS011;24794;51.982;5.878;2022-10-16T02:18:13;3.60;;;2.08;;
39032;SDS011;24794;51.982;5.878;2022-10-16T02:19:14;4.25;;;2.22;;
39032;SDS011;24794;51.982;5.878;2022-10-16T02:20:19;3.45;;;2.13;;
39032;SDS011;24794;51.982;5.878;2022-10-16T02:22:46;5.43;;;2.70;;
39032;SDS011;24794;51.982;5.878;2022-10-16T02:24:14;4.18;;;2.30;;
39032;SDS011;24794;51.982;5.878;2022-10-16T02:27:50;2.90;;;1.98;;
39032;SDS011;24794;51.982;5.878;2022-10-16T02:28:59;5.18;;;2.47;;
39032;SDS011;24794;51.982;5.878;2022-10-16T02:31:11;3.25;;;2.38;;
39032;SDS011;24794;51.982;5.878;2022-10-16T02:32:15;7.65;;;3.00;;
39032;SDS011;24794;51.982;5.878;2022-10-16T02:33:19;6.05;;;2.53;;
39032;SDS011;24794;51.982;5.878;2022-10-16T02:34:22;5.30;;;2.47;;
39032;SDS011;24794;51.982;5.878;2022-10-16T02:35:25;5.43;;;2.85;;
39032;SDS011;24794;51.982;5.878;2022-10-16T02:36:27;3.85;;;2.50;;
39032;SDS011;24794;51.982;5.878;2022-10-16T02:37:29;5.65;;;3.10;;
39032;SDS011;24794;51.982;5.878;2022-10-16T02:38:30;5.10;;;2.60;;
39032;SDS011;24794;51.982;5.878;2022-10-16T02:39:31;5.40;;;2.42;;
39032;SDS011;24794;51.982;5.878;2022-10-16T02:40:33;7.13;;;2.90;;
39032;SDS011;24794;51.982;5.878;2022-10-16T02:41:34;3.60;;;2.40;;
39032;SDS011;24794;51.982;5.878;2022-10-16T02:42:36;6.10;;;2.35;;
39032;SDS011;24794;51.982;5.878;2022-10-16T02:43:38;4.90;;;2.20;;
39032;SDS011;24794;51.982;5.878;2022-10-16T02:44:39;3.47;;;2.10;;
39032;SDS011;24794;51.982;5.878;2022-10-16T02:45:39;4.30;;;2.17;;
39032;SDS011;24794;51.982;5.878;2022-10-16T02:46:40;4.03;;;2.10;;
39032;SDS011;24794;51.982;5.878;2022-10-16T02:47:41;3.45;;;1.90;;
39032;SDS011;24794;51.982;5.878;2022-10-16T02:48:41;2.53;;;1.90;;
39032;SDS011;24794;51.982;5.878;2022-10-16T02:49:42;5.05;;;1.90;;
39032;SDS011;24794;51.982;5.878;2022-10-16T02:50:42;2.88;;;1.77;;
39032;SDS011;24794;51.982;5.878;2022-10-16T02:51:43;4.05;;;2.00;;
39032;SDS011;24794;51.982;5.878;2022-10-16T02:52:44;6.60;;;2.20;;
39032;SDS011;24794;51.982;5.878;2022-10-16T02:53:44;4.28;;;2.10;;
39032;SDS011;24794;51.982;5.878;2022-10-16T02:54:45;4.40;;;2.10;;
39032;SDS011;24794;51.982;5.878;2022-10-16T02:55:45;6.05;;;2.67;;
39032;SDS011;24794;51.982;5.878;2022-10-16T02:56:46;4.20;;;1.95;;
39032;SDS011;24794;51.982;5.878;2022-10-16T02:57:46;3.47;;;2.10;;
39032;SDS011;24794;51.982;5.878;2022-10-16T02:58:47;3.30;;;1.77;;
39032;SDS011;24794;51.982;5.878;2022-10-16T02:59:48;3.00;;;1.70;;
39032;SDS011;24794;51.982;5.878;2022-10-16T03:00:48;2.67;;;1.98;;
39032;SDS011;24794;51.982;5.878;2022-10-16T03:01:49;4.40;;;2.05;;
39032;SDS011;24794;51.982;5.878;2022-10-16T03:02:49;5.00;;;2.00;;
39032;SDS011;24794;51.982;5.878;2022-10-16T03:03:50;5.30;;;2.10;;
39032;SDS011;24794;51.982;5.878;2022-10-16T03:04:50;8.15;;;2.10;;
39032;SDS011;24794;51.982;5.878;2022-10-16T03:05:51;2.97;;;2.00;;
39032;SDS011;24794;51.982;5.878;2022-10-16T03:06:51;5.75;;;1.83;;
39032;SDS011;24794;51.982;5.878;2022-10-16T03:07:52;3.10;;;1.85;;
39032;SDS011;24794;51.982;5.878;2022-10-16T03:08:53;5.93;;;2.10;;
39032;SDS011;24794;51.982;5.878;2022-10-16T03:09:53;5.15;;;2.38;;
39032;SDS011;24794;51.982;5.878;2022-10-16T03:10:56;3.97;;;1.88;;
39032;SDS011;24794;51.982;5.878;2022-10-16T03:11:56;2.10;;;1.58;;
39032;SDS011;24794;51.982;5.878;2022-10-16T03:12:57;6.28;;;1.90;;
39032;SDS011;24794;51.982;5.878;2022-10-16T03:13:57;7.50;;;2.20;;
39032;SDS011;24794;51.982;5.878;2022-10-16T03:14:58;4.82;;;1.80;;
39032;SDS011;24794;51.982;5.878;2022-10-16T03:15:59;3.00;;;1.67;;
39032;SDS011;24794;51.982;5.878;2022-10-16T03:16:59;6.45;;;1.70;;
39032;SDS011;24794;51.982;5.878;2022-10-16T03:18:00;4.05;;;2.10;;
39032;SDS011;24794;51.982;5.878;2022-10-16T03:19:00;4.97;;;1.88;;
39032;SDS011;24794;51.982;5.878;2022-10-16T03:20:01;4.65;;;1.92;;
39032;SDS011;24794;51.982;5.878;2022-10-16T03:21:03;4.40;;;1.85;;
39032;SDS011;24794;51.982;5.878;2022-10-16T03:22:03;3.78;;;1.80;;
39032;SDS011;24794;51.982;5.878;2022-10-16T03:23:04;4.50;;;2.15;;
39032;SDS011;24794;51.982;5.878;2022-10-16T03:24:05;3.35;;;2.03;;
39032;SDS011;24794;51.982;5.878;2022-10-16T03:25:05;3.05;;;1.60;;
39032;SDS011;24794;51.982;5.878;2022-10-16T03:26:06;3.70;;;1.98;;
39032;SDS011;24794;51.982;5.878;2022-10-16T03:27:07;6.10;;;2.03;;
39032;SDS011;24794;51.982;5.878;2022-10-16T03:28:08;3.30;;;1.70;;
39032;SDS011;24794;51.982;5.878;2022-10-16T03:29:09;4.50;;;2.00;;
39032;SDS011;24794;51.982;5.878;2022-10-16T03:30:09;4.78;;;1.60;;
39032;SDS011;24794;51.982;5.878;2022-10-16T03:31:10;3.17;;;1.90;;
39032;SDS011;24794;51.982;5.878;2022-10-16T03:32:11;6.97;;;1.95;;
39032;SDS011;24794;51.982;5.878;2022-10-16T03:33:11;2.83;;;1.73;;
39032;SDS011;24794;51.982;5.878;2022-10-16T03:34:12;4.18;;;1.67;;
39032;SDS011;24794;51.982;5.878;2022-10-16T03:35:12;4.45;;;1.83;;
39032;SDS011;24794;51.982;5.878;2022-10-16T03:36:13;4.45;;;1.80;;
39032;SDS011;24794;51.982;5.878;2022-10-16T03:37:13;4.15;;;1.80;;
39032;SDS011;24794;51.982;5.878;2022-10-16T03:38:14;3.15;;;1.60;;
39032;SDS011;24794;51.982;5.878;2022-10-16T03:39:14;2.67;;;1.48;;
39032;SDS011;24794;51.982;5.878;2022-10-16T03:40:15;3.72;;;1.65;;
39032;SDS011;24794;51.982;5.878;2022-10-16T03:41:17;3.42;;;1.50;;
39032;SDS011;24794;51.982;5.878;2022-10-16T03:42:17;3.05;;;1.67;;
39032;SDS011;24794;51.982;5.878;2022-10-16T03:43:18;3.47;;;1.38;;
39032;SDS011;24794;51.982;5.878;2022-10-16T03:44:18;2.42;;;1.40;;
39032;SDS011;24794;51.982;5.878;2022-10-16T03:45:19;2.20;;;1.50;;
39032;SDS011;24794;51.982;5.878;2022-10-16T03:46:19;3.22;;;1.60;;
39032;SDS011;24794;51.982;5.878;2022-10-16T03:47:20;2.67;;;1.65;;
39032;SDS011;24794;51.982;5.878;2022-10-16T03:48:23;5.10;;;1.95;;
39032;SDS011;24794;51.982;5.878;2022-10-16T03:49:23;3.40;;;1.88;;
39032;SDS011;24794;51.982;5.878;2022-10-16T03:50:24;4.32;;;1.60;;
39032;SDS011;24794;51.982;5.878;2022-10-16T03:51:24;4.30;;;1.67;;
39032;SDS011;24794;51.982;5.878;2022-10-16T03:52:25;2.83;;;1.70;;
39032;SDS011;24794;51.982;5.878;2022-10-16T03:53:26;2.85;;;1.38;;
39032;SDS011;24794;51.982;5.878;2022-10-16T03:54:26;3.00;;;1.40;;
39032;SDS011;24794;51.982;5.878;2022-10-16T03:55:27;4.53;;;1.70;;
39032;SDS011;24794;51.982;5.878;2022-10-16T03:56:27;3.92;;;2.00;;
39032;SDS011;24794;51.982;5.878;2022-10-16T03:57:28;3.63;;;2.10;;
39032;SDS011;24794;51.982;5.878;2022-10-16T03:58:28;3.60;;;1.67;;
39032;SDS011;24794;51.982;5.878;2022-10-16T03:59:29;3.50;;;1.67;;
39032;SDS011;24794;51.982;5.878;2022-10-16T04:00:29;4.35;;;1.45;;
39032;SDS011;24794;51.982;5.878;2022-10-16T04:01:30;2.60;;;1.60;;
39032;SDS011;24794;51.982;5.878;2022-10-16T04:02:30;2.60;;;1.75;;
39032;SDS011;24794;51.982;5.878;2022-10-16T04:03:31;3.67;;;1.95;;
39032;SDS011;24794;51.982;5.878;2022-10-16T04:04:32;3.40;;;1.65;;
39032;SDS011;24794;51.982;5.878;2022-10-16T04:05:32;3.60;;;1.75;;
39032;SDS011;24794;51.982;5.878;2022-10-16T04:06:33;3.47;;;1.65;;
39032;SDS011;24794;51.982;5.878;2022-10-16T04:07:34;2.83;;;1.50;;
39032;SDS011;24794;51.982;5.878;2022-10-16T04:08:35;4.05;;;1.60;;
39032;SDS011;24794;51.982;5.878;2022-10-16T04:09:36;2.70;;;1.73;;
39032;SDS011;24794;51.982;5.878;2022-10-16T04:10:37;3.65;;;1.30;;
39032;SDS011;24794;51.982;5.878;2022-10-16T04:11:37;2.83;;;1.58;;
39032;SDS011;24794;51.982;5.878;2022-10-16T04:12:38;3.25;;;2.00;;
39032;SDS011;24794;51.982;5.878;2022-10-16T04:13:39;4.65;;;1.80;;
39032;SDS011;24794;51.982;5.878;2022-10-16T04:14:40;4.03;;;2.15;;
39032;SDS011;24794;51.982;5.878;2022-10-16T04:15:40;2.97;;;1.60;;
39032;SDS011;24794;51.982;5.878;2022-10-16T04:16:41;3.40;;;1.70;;
39032;SDS011;24794;51.982;5.878;2022-10-16T04:17:42;2.95;;;1.77;;
39032;SDS011;24794;51.982;5.878;2022-10-16T04:18:42;4.10;;;1.70;;
39032;SDS011;24794;51.982;5.878;2022-10-16T04:19:43;3.67;;;1.73;;
39032;SDS011;24794;51.982;5.878;2022-10-16T04:20:43;3.08;;;1.50;;
39032;SDS011;24794;51.982;5.878;2022-10-16T04:21:44;2.10;;;1.63;;
39032;SDS011;24794;51.982;5.878;2022-10-16T04:22:44;2.97;;;1.52;;
39032;SDS011;24794;51.982;5.878;2022-10-16T04:23:45;5.13;;;2.00;;
39032;SDS011;24794;51.982;5.878;2022-10-16T04:24:46;3.80;;;1.80;;
39032;SDS011;24794;51.982;5.878;2022-10-16T04:25:46;2.17;;;1.40;;
39032;SDS011;24794;51.982;5.878;2022-10-16T04:26:47;3.17;;;1.52;;
39032;SDS011;24794;51.982;5.878;2022-10-16T04:27:47;5.45;;;1.60;;
39032;SDS011;24794;51.982;5.878;2022-10-16T04:28:48;2.67;;;1.60;;
39032;SDS011;24794;51.982;5.878;2022-10-16T04:29:48;3.67;;;1.67;;
39032;SDS011;24794;51.982;5.878;2022-10-16T04:30:49;4.68;;;1.50;;
39032;SDS011;24794;51.982;5.878;2022-10-16T04:31:50;3.83;;;1.92;;
39032;SDS011;24794;51.982;5.878;2022-10-16T04:32:51;3.65;;;1.50;;
39032;SDS011;24794;51.982;5.878;2022-10-16T04:33:52;4.55;;;1.98;;
39032;SDS011;24794;51.982;5.878;2022-10-16T04:34:53;2.30;;;1.40;;
39032;SDS011;24794;51.982;5.878;2022-10-16T04:35:57;2.97;;;1.60;;
39032;SDS011;24794;51.982;5.878;2022-10-16T04:36:58;3.45;;;1.58;;
39032;SDS011;24794;51.982;5.878;2022-10-16T04:37:59;2.45;;;1.60;;
39032;SDS011;24794;51.982;5.878;2022-10-16T04:38:59;2.72;;;1.40;;
39032;SDS011;24794;51.982;5.878;2022-10-16T04:40:00;2.35;;;1.60;;
39032;SDS011;24794;51.982;5.878;2022-10-16T04:41:00;4.22;;;1.70;;
39032;SDS011;24794;51.982;5.878;2022-10-16T04:42:01;2.08;;;1.50;;
39032;SDS011;24794;51.982;5.878;2022-10-16T04:43:03;3.17;;;1.50;;
39032;SDS011;24794;51.982;5.878;2022-10-16T04:44:04;2.95;;;1.60;;
39032;SDS011;24794;51.982;5.878;2022-10-16T04:45:05;2.67;;;1.50;;
39032;SDS011;24794;51.982;5.878;2022-10-16T04:46:06;5.63;;;1.83;;
39032;SDS011;24794;51.982;5.878;2022-10-16T04:47:07;3.85;;;1.80;;
39032;SDS011;24794;51.982;5.878;2022-10-16T04:48:07;4.47;;;1.80;;
39032;SDS011;24794;51.982;5.878;2022-10-16T04:49:08;2.08;;;1.30;;
39032;SDS011;24794;51.982;5.878;2022-10-16T04:50:09;2.58;;;1.65;;
39032;SDS011;24794;51.982;5.878;2022-10-16T04:51:09;2.60;;;1.70;;
39032;SDS011;24794;51.982;5.878;2022-10-16T04:52:10;4.00;;;1.63;;
39032;SDS011;24794;51.982;5.878;2022-10-16T04:53:11;5.28;;;2.00;;
39032;SDS011;24794;51.982;5.878;2022-10-16T04:54:12;2.92;;;1.80;;
39032;SDS011;24794;51.982;5.878;2022-10-16T04:55:12;2.08;;;1.40;;
39032;SDS011;24794;51.982;5.878;2022-10-16T04:56:13;2.60;;;1.67;;
39032;SDS011;24794;51.982;5.878;2022-10-16T04:57:15;4.43;;;1.90;;
39032;SDS011;24794;51.982;5.878;2022-10-16T04:58:15;4.10;;;1.42;;
39032;SDS011;24794;51.982;5.878;2022-10-16T04:59:17;3.05;;;1.55;;
39032;SDS011;24794;51.982;5.878;2022-10-16T05:00:18;3.85;;;1.70;;
39032;SDS011;24794;51.982;5.878;2022-10-16T05:01:19;3.55;;;1.50;;
39032;SDS011;24794;51.982;5.878;2022-10-16T05:02:19;2.35;;;1.55;;
39032;SDS011;24794;51.982;5.878;2022-10-16T05:03:20;2.70;;;1.40;;
39032;SDS011;24794;51.982;5.878;2022-10-16T05:04:20;5.18;;;1.65;;
39032;SDS011;24794;51.982;5.878;2022-10-16T05:05:21;3.53;;;1.30;;
39032;SDS011;24794;51.982;5.878;2022-10-16T05:06:22;4.55;;;1.90;;
39032;SDS011;24794;51.982;5.878;2022-10-16T05:07:23;4.43;;;1.90;;
39032;SDS011;24794;51.982;5.878;2022-10-16T05:08:24;3.20;;;1.67;;
39032;SDS011;24794;51.982;5.878;2022-10-16T05:09:24;3.13;;;1.67;;
39032;SDS011;24794;51.982;5.878;2022-10-16T05:10:25;2.55;;;1.40;;
39032;SDS011;24794;51.982;5.878;2022-10-16T05:11:25;6.32;;;1.80;;
39032;SDS011;24794;51.982;5.878;2022-10-16T05:12:26;3.42;;;1.60;;
39032;SDS011;24794;51.982;5.878;2022-10-16T05:13:27;2.35;;;1.42;;
39032;SDS011;24794;51.982;5.878;2022-10-16T05:14:27;3.67;;;1.70;;
39032;SDS011;24794;51.982;5.878;2022-10-16T05:15:28;2.60;;;1.63;;
39032;SDS011;24794;51.982;5.878;2022-10-16T05:16:29;2.55;;;1.35;;
39032;SDS011;24794;51.982;5.878;2022-10-16T05:17:30;3.40;;;1.58;;
39032;SDS011;24794;51.982;5.878;2022-10-16T05:18:31;1.55;;;1.30;;
39032;SDS011;24794;51.982;5.878;2022-10-16T05:19:32;2.85;;;1.70;;
39032;SDS011;24794;51.982;5.878;2022-10-16T05:20:32;4.75;;;1.77;;
39032;SDS011;24794;51.982;5.878;2022-10-16T05:21:33;5.03;;;1.50;;
39032;SDS011;24794;51.982;5.878;2022-10-16T05:22:33;3.08;;;1.70;;
39032;SDS011;24794;51.982;5.878;2022-10-16T05:23:34;4.53;;;1.52;;
39032;SDS011;24794;51.982;5.878;2022-10-16T05:24:34;3.10;;;1.13;;
39032;SDS011;24794;51.982;5.878;2022-10-16T05:25:35;2.28;;;1.50;;
39032;SDS011;24794;51.982;5.878;2022-10-16T05:26:36;2.60;;;1.80;;
39032;SDS011;24794;51.982;5.878;2022-10-16T05:27:37;3.55;;;1.60;;
39032;SDS011;24794;51.982;5.878;2022-10-16T05:28:37;3.58;;;1.80;;
39032;SDS011;24794;51.982;5.878;2022-10-16T05:29:38;3.17;;;1.83;;
39032;SDS011;24794;51.982;5.878;2022-10-16T05:30:38;3.33;;;1.70;;
39032;SDS011;24794;51.982;5.878;2022-10-16T05:31:39;3.25;;;1.50;;
39032;SDS011;24794;51.982;5.878;2022-10-16T05:32:40;3.47;;;1.63;;
39032;SDS011;24794;51.982;5.878;2022-10-16T05:33:40;4.93;;;1.73;;
39032;SDS011;24794;51.982;5.878;2022-10-16T05:34:41;4.00;;;1.60;;
39032;SDS011;24794;51.982;5.878;2022-10-16T05:35:42;2.75;;;1.58;;
39032;SDS011;24794;51.982;5.878;2022-10-16T05:36:43;5.32;;;1.98;;
39032;SDS011;24794;51.982;5.878;2022-10-16T05:37:45;6.10;;;2.00;;
39032;SDS011;24794;51.982;5.878;2022-10-16T05:38:50;4.13;;;1.73;;
39032;SDS011;24794;51.982;5.878;2022-10-16T05:39:51;3.47;;;1.73;;
39032;SDS011;24794;51.982;5.878;2022-10-16T05:40:51;2.17;;;1.45;;
39032;SDS011;24794;51.982;5.878;2022-10-16T05:41:52;3.28;;;1.80;;
39032;SDS011;24794;51.982;5.878;2022-10-16T05:42:56;3.95;;;1.63;;
39032;SDS011;24794;51.982;5.878;2022-10-16T05:43:56;2.38;;;1.55;;
39032;SDS011;24794;51.982;5.878;2022-10-16T05:44:57;2.90;;;1.45;;
39032;SDS011;24794;51.982;5.878;2022-10-16T05:45:58;3.00;;;1.58;;
39032;SDS011;24794;51.982;5.878;2022-10-16T05:47:01;2.25;;;1.50;;
39032;SDS011;24794;51.982;5.878;2022-10-16T05:48:01;3.05;;;1.60;;
39032;SDS011;24794;51.982;5.878;2022-10-16T05:49:02;3.78;;;1.73;;
39032;SDS011;24794;51.982;5.878;2022-10-16T05:50:03;2.75;;;1.70;;
39032;SDS011;24794;51.982;5.878;2022-10-16T05:51:05;3.47;;;1.60;;
39032;SDS011;24794;51.982;5.878;2022-10-16T05:52:07;2.25;;;1.73;;
39032;SDS011;24794;51.982;5.878;2022-10-16T05:53:07;7.80;;;2.03;;
39032;SDS011;24794;51.982;5.878;2022-10-16T05:54:08;2.90;;;1.63;;
39032;SDS011;24794;51.982;5.878;2022-10-16T05:55:09;3.28;;;1.50;;
39032;SDS011;24794;51.982;5.878;2022-10-16T05:56:10;2.38;;;1.30;;
39032;SDS011;24794;51.982;5.878;2022-10-16T05:57:12;4.15;;;1.90;;
39032;SDS011;24794;51.982;5.878;2022-10-16T05:58:12;4.00;;;1.70;;
39032;SDS011;24794;51.982;5.878;2022-10-16T05:59:13;2.00;;;1.60;;
39032;SDS011;24794;51.982;5.878;2022-10-16T06:00:14;4.10;;;2.10;;
39032;SDS011;24794;51.982;5.878;2022-10-16T06:01:16;2.92;;;1.55;;
39032;SDS011;24794;51.982;5.878;2022-10-16T06:02:18;2.85;;;1.70;;
39032;SDS011;24794;51.982;5.878;2022-10-16T06:03:18;3.80;;;1.83;;
39032;SDS011;24794;51.982;5.878;2022-10-16T06:04:19;5.68;;;1.60;;
39032;SDS011;24794;51.982;5.878;2022-10-16T06:05:19;1.80;;;1.30;;
39032;SDS011;24794;51.982;5.878;2022-10-16T06:06:21;3.25;;;1.48;;
39032;SDS011;24794;51.982;5.878;2022-10-16T06:07:24;2.45;;;1.60;;
39032;SDS011;24794;51.982;5.878;2022-10-16T06:08:24;3.90;;;1.75;;
39032;SDS011;24794;51.982;5.878;2022-10-16T06:09:25;3.50;;;1.52;;
39032;SDS011;24794;51.982;5.878;2022-10-16T06:10:26;2.53;;;1.40;;
39032;SDS011;24794;51.982;5.878;2022-10-16T06:11:27;2.08;;;1.65;;
39032;SDS011;24794;51.982;5.878;2022-10-16T06:12:29;4.45;;;1.50;;
39032;SDS011;24794;51.982;5.878;2022-10-16T06:13:30;1.98;;;1.42;;
39032;SDS011;24794;51.982;5.878;2022-10-16T06:14:30;4.60;;;1.90;;
39032;SDS011;24794;51.982;5.878;2022-10-16T06:15:31;3.70;;;1.80;;
39032;SDS011;24794;51.982;5.878;2022-10-16T06:16:33;3.13;;;1.80;;
39032;SDS011;24794;51.982;5.878;2022-10-16T06:17:34;3.90;;;2.00;;
39032;SDS011;24794;51.982;5.878;2022-10-16T06:18:35;2.78;;;1.60;;
39032;SDS011;24794;51.982;5.878;2022-10-16T06:19:35;2.78;;;1.60;;
39032;SDS011;24794;51.982;5.878;2022-10-16T06:20:36;3.38;;;1.55;;
39032;SDS011;24794;51.982;5.878;2022-10-16T06:21:37;3.22;;;1.77;;
39032;SDS011;24794;51.982;5.878;2022-10-16T06:22:38;4.18;;;1.80;;
39032;SDS011;24794;51.982;5.878;2022-10-16T06:23:39;4.35;;;1.70;;
39032;SDS011;24794;51.982;5.878;2022-10-16T06:24:39;5.07;;;1.63;;
39032;SDS011;24794;51.982;5.878;2022-10-16T06:25:40;3.63;;;1.92;;
39032;SDS011;24794;51.982;5.878;2022-10-16T06:26:40;3.85;;;2.00;;
39032;SDS011;24794;51.982;5.878;2022-10-16T06:27:41;4.65;;;1.75;;
39032;SDS011;24794;51.982;5.878;2022-10-16T06:28:42;3.65;;;1.90;;
39032;SDS011;24794;51.982;5.878;2022-10-16T06:29:42;2.80;;;1.67;;
39032;SDS011;24794;51.982;5.878;2022-10-16T06:30:44;2.83;;;1.90;;
39032;SDS011;24794;51.982;5.878;2022-10-16T06:31:45;2.53;;;1.80;;
39032;SDS011;24794;51.982;5.878;2022-10-16T06:32:46;2.53;;;1.73;;
39032;SDS011;24794;51.982;5.878;2022-10-16T06:33:49;3.08;;;1.65;;